หน้าหลัก
METAR-TAF:

METAR-TAF

ท่าอากาศยาน :

ท่าอากาศยานนานาชาติอินทิรา คานธี

นิวเดลี, อินเดีย

ละติจูด: 28-34N, ลองจิจูด: 077-07E, ความสูง: 220 ม.

การสังเกตสภาพอากาศปัจจุบัน

รายงานได้ทำขึ้นเมื่อ 19 นาทีที่แล้ว ณ เวลา 03:30 UTC
ลม 10 นอตจากตะวันออก/ตะวันออกเฉียงใต้
อุณหภูมิ 34°C
ความชื้น 44%
ความกดอากาศ 1005 hPa
ทัศนวิสัย: 3500 ม.
เมฆหมอก,

METAR: VIDP 240330Z 12010KT 3500 HZ NSC 34/20 Q1005 NOSIG

เวลา: 09:19 (03:49 UTC)

การพยากรณ์

รายงานได้ทำขึ้นเมื่อ 1 ชั่วโมงและ 49 นาทีที่แล้ว ณ เวลา 02:00 UTC
การพยากรณ์มีผลตั้งแต่วันที่ 24 ณ เวลา 03 UTC จนถึงวันที่ 24 ณ เวลา 12 UTC
ลม 8 นอตจากตะวันออก/ตะวันออกเฉียงใต้โดยมีลมกระโชกได้ถึง18 นอต
ทัศนวิสัย: 3500 ม.
มีเมฆน้อยที่ความสูง 10000 ฟุต
เมฆหมอก
กำลังกลายเป็น
ตั้งแต่วันที่ 24 ณ เวลา 08 UTC จนถึงวันที่ 24 ณ เวลา 10 UTC
ลม 10 นอตจากตะวันออกโดยมีลมกระโชกได้ถึง20 นอต
ทัศนวิสัย: 5000 ม.
เมฆหมอก,

TAF: VIDP 240200Z 2403/2412 12008G18KT 3500 HZ FEW100 BECMG 2408/2410 10010G20KT 5000 HZ

สังเกตการณ์สภาพอากาศและพยากรณ์อากาศของสนามบินมากกว่า 4000 แห่ง (รายงาน METAR และ TAF).

สถานีที่ดูได้จะแสดงไว้ด้วยจุดสีเหลืองและสีแดงบนแผนที่.

เลื่อนเมาส์ไปเหนือจุดเพื่อดูชื่อสถานี.

แล้วคลิกเพื่อดูสังเกตการณ์และการพยากรณ์สภาพอากาศ.

ในการเปลี่ยนแผนที่: คลิกที่ปุ่มสีเขียวที่มีกากบาทสีดำเพื่อซูมเข้า; ที่ปุ่มสีเขียวที่มีขีดเพื่อซูมออก; หรือที่ลูกศรสีเขียวเพื่อไปยังแผนที่ที่อยู่ติดกัน.


METAR-TAF: